sensor_id;sensor_type;location;lat;lon;timestamp;temperature;humidity
5176;DHT22;2607;50.934;6.934;2022-08-19T00:00:05;21.70;99.90
5176;DHT22;2607;50.934;6.934;2022-08-19T00:02:32;21.70;99.90
5176;DHT22;2607;50.934;6.934;2022-08-19T00:04:58;21.70;99.90
5176;DHT22;2607;50.934;6.934;2022-08-19T00:07:24;21.60;99.90
5176;DHT22;2607;50.934;6.934;2022-08-19T00:09:49;21.60;99.90
5176;DHT22;2607;50.934;6.934;2022-08-19T00:12:15;21.60;99.90
5176;DHT22;2607;50.934;6.934;2022-08-19T00:14:41;21.60;99.90
5176;DHT22;2607;50.934;6.934;2022-08-19T00:17:08;21.50;99.90
5176;DHT22;2607;50.934;6.934;2022-08-19T00:19:34;21.50;99.90
5176;DHT22;2607;50.934;6.934;2022-08-19T00:21:59;21.50;99.90
5176;DHT22;2607;50.934;6.934;2022-08-19T00:24:26;21.50;99.90
5176;DHT22;2607;50.934;6.934;2022-08-19T00:26:52;21.50;99.90
5176;DHT22;2607;50.934;6.934;2022-08-19T00:29:19;21.50;99.90
5176;DHT22;2607;50.934;6.934;2022-08-19T00:31:46;21.50;99.90
5176;DHT22;2607;50.934;6.934;2022-08-19T00:34:13;21.50;99.90
5176;DHT22;2607;50.934;6.934;2022-08-19T00:36:41;21.40;99.90
5176;DHT22;2607;50.934;6.934;2022-08-19T00:39:07;21.40;99.90
5176;DHT22;2607;50.934;6.934;2022-08-19T00:41:33;21.40;99.90
5176;DHT22;2607;50.934;6.934;2022-08-19T00:44:05;21.40;99.90
5176;DHT22;2607;50.934;6.934;2022-08-19T00:46:33;21.40;99.90
5176;DHT22;2607;50.934;6.934;2022-08-19T00:49:04;21.30;99.90
5176;DHT22;2607;50.934;6.934;2022-08-19T00:51:31;21.30;99.90
5176;DHT22;2607;50.934;6.934;2022-08-19T00:53:59;21.30;99.90
5176;DHT22;2607;50.934;6.934;2022-08-19T00:56:26;21.30;99.90
5176;DHT22;2607;50.934;6.934;2022-08-19T00:58:53;21.20;99.90
5176;DHT22;2607;50.934;6.934;2022-08-19T01:01:19;21.20;99.90
5176;DHT22;2607;50.934;6.934;2022-08-19T01:03:45;21.20;99.90
5176;DHT22;2607;50.934;6.934;2022-08-19T01:06:11;21.20;99.90
5176;DHT22;2607;50.934;6.934;2022-08-19T01:08:36;21.20;99.90
5176;DHT22;2607;50.934;6.934;2022-08-19T01:11:02;21.10;99.90
5176;DHT22;2607;50.934;6.934;2022-08-19T01:13:32;21.10;99.90
5176;DHT22;2607;50.934;6.934;2022-08-19T01:16:02;21.10;99.90
5176;DHT22;2607;50.934;6.934;2022-08-19T01:18:29;21.10;99.90
5176;DHT22;2607;50.934;6.934;2022-08-19T01:20:58;21.10;99.90
5176;DHT22;2607;50.934;6.934;2022-08-19T01:23:26;21.00;99.90
5176;DHT22;2607;50.934;6.934;2022-08-19T01:26:09;21.00;99.90
5176;DHT22;2607;50.934;6.934;2022-08-19T01:28:36;21.00;99.90
5176;DHT22;2607;50.934;6.934;2022-08-19T01:31:03;21.00;99.90
5176;DHT22;2607;50.934;6.934;2022-08-19T01:33:29;21.00;99.90
5176;DHT22;2607;50.934;6.934;2022-08-19T01:36:07;21.00;99.90
5176;DHT22;2607;50.934;6.934;2022-08-19T01:38:38;21.00;99.90
5176;DHT22;2607;50.934;6.934;2022-08-19T01:41:04;20.90;99.90
5176;DHT22;2607;50.934;6.934;2022-08-19T01:43:30;20.90;99.90
5176;DHT22;2607;50.934;6.934;2022-08-19T01:45:55;20.90;99.90
5176;DHT22;2607;50.934;6.934;2022-08-19T01:48:21;20.90;99.90
5176;DHT22;2607;50.934;6.934;2022-08-19T01:50:47;20.80;99.90
5176;DHT22;2607;50.934;6.934;2022-08-19T01:53:13;20.80;99.90
5176;DHT22;2607;50.934;6.934;2022-08-19T01:55:41;20.80;99.90
5176;DHT22;2607;50.934;6.934;2022-08-19T01:58:14;20.80;99.90
5176;DHT22;2607;50.934;6.934;2022-08-19T02:00:42;20.80;99.90
5176;DHT22;2607;50.934;6.934;2022-08-19T02:03:08;20.70;99.90
5176;DHT22;2607;50.934;6.934;2022-08-19T02:05:35;20.70;99.90
5176;DHT22;2607;50.934;6.934;2022-08-19T02:08:00;20.70;99.90
5176;DHT22;2607;50.934;6.934;2022-08-19T02:10:26;20.70;99.90
5176;DHT22;2607;50.934;6.934;2022-08-19T02:12:52;20.70;99.90
5176;DHT22;2607;50.934;6.934;2022-08-19T02:15:19;20.70;99.90
5176;DHT22;2607;50.934;6.934;2022-08-19T02:17:45;20.70;99.90
5176;DHT22;2607;50.934;6.934;2022-08-19T02:20:10;20.70;99.90
5176;DHT22;2607;50.934;6.934;2022-08-19T02:22:37;20.70;99.90
5176;DHT22;2607;50.934;6.934;2022-08-19T02:25:04;20.70;99.90
5176;DHT22;2607;50.934;6.934;2022-08-19T02:27:30;20.70;99.90
5176;DHT22;2607;50.934;6.934;2022-08-19T02:29:56;20.70;99.90
5176;DHT22;2607;50.934;6.934;2022-08-19T02:32:21;20.70;99.90
5176;DHT22;2607;50.934;6.934;2022-08-19T02:34:47;20.70;99.90
5176;DHT22;2607;50.934;6.934;2022-08-19T02:37:13;20.70;99.90
5176;DHT22;2607;50.934;6.934;2022-08-19T02:39:58;20.70;99.90
5176;DHT22;2607;50.934;6.934;2022-08-19T02:42:24;20.70;99.90
5176;DHT22;2607;50.934;6.934;2022-08-19T02:44:50;20.70;99.90
5176;DHT22;2607;50.934;6.934;2022-08-19T02:47:17;20.60;99.90
5176;DHT22;2607;50.934;6.934;2022-08-19T02:49:44;20.60;99.90
5176;DHT22;2607;50.934;6.934;2022-08-19T02:52:10;20.60;99.90
5176;DHT22;2607;50.934;6.934;2022-08-19T02:54:37;20.60;99.90
5176;DHT22;2607;50.934;6.934;2022-08-19T02:57:03;20.60;99.90
5176;DHT22;2607;50.934;6.934;2022-08-19T02:59:30;20.60;99.90
5176;DHT22;2607;50.934;6.934;2022-08-19T03:01:56;20.60;99.90
5176;DHT22;2607;50.934;6.934;2022-08-19T03:04:22;20.60;99.90
5176;DHT22;2607;50.934;6.934;2022-08-19T03:06:48;20.60;99.90
5176;DHT22;2607;50.934;6.934;2022-08-19T03:09:14;20.60;99.90
5176;DHT22;2607;50.934;6.934;2022-08-19T03:11:40;20.60;99.90
5176;DHT22;2607;50.934;6.934;2022-08-19T03:14:07;20.60;99.90
5176;DHT22;2607;50.934;6.934;2022-08-19T03:16:43;20.50;99.90
5176;DHT22;2607;50.934;6.934;2022-08-19T03:19:09;20.50;99.90
5176;DHT22;2607;50.934;6.934;2022-08-19T03:21:35;20.50;99.90
5176;DHT22;2607;50.934;6.934;2022-08-19T03:24:06;20.50;99.90
5176;DHT22;2607;50.934;6.934;2022-08-19T03:26:33;20.50;99.90
5176;DHT22;2607;50.934;6.934;2022-08-19T03:29:03;20.50;99.90
5176;DHT22;2607;50.934;6.934;2022-08-19T03:31:30;20.40;99.90
5176;DHT22;2607;50.934;6.934;2022-08-19T03:33:56;20.40;99.90
5176;DHT22;2607;50.934;6.934;2022-08-19T03:36:25;20.40;99.90
5176;DHT22;2607;50.934;6.934;2022-08-19T03:38:55;20.40;99.90
5176;DHT22;2607;50.934;6.934;2022-08-19T03:41:30;20.40;99.90
5176;DHT22;2607;50.934;6.934;2022-08-19T03:43:57;20.30;99.90
5176;DHT22;2607;50.934;6.934;2022-08-19T03:46:25;20.30;99.90
5176;DHT22;2607;50.934;6.934;2022-08-19T03:48:53;20.30;99.90
5176;DHT22;2607;50.934;6.934;2022-08-19T03:51:28;20.30;99.90
5176;DHT22;2607;50.934;6.934;2022-08-19T03:54:01;20.30;99.90
5176;DHT22;2607;50.934;6.934;2022-08-19T03:56:28;20.30;99.90
5176;DHT22;2607;50.934;6.934;2022-08-19T03:58:55;20.30;99.90
5176;DHT22;2607;50.934;6.934;2022-08-19T04:01:24;20.30;99.90
5176;DHT22;2607;50.934;6.934;2022-08-19T04:03:55;20.30;99.90
5176;DHT22;2607;50.934;6.934;2022-08-19T04:06:28;20.30;99.90
5176;DHT22;2607;50.934;6.934;2022-08-19T04:08:55;20.30;99.90
5176;DHT22;2607;50.934;6.934;2022-08-19T04:11:26;20.20;99.90
5176;DHT22;2607;50.934;6.934;2022-08-19T04:13:53;20.20;99.90
5176;DHT22;2607;50.934;6.934;2022-08-19T04:16:21;20.20;99.90
5176;DHT22;2607;50.934;6.934;2022-08-19T04:18:47;20.20;99.90
5176;DHT22;2607;50.934;6.934;2022-08-19T04:21:19;20.20;99.90
5176;DHT22;2607;50.934;6.934;2022-08-19T04:23:45;20.10;99.90
5176;DHT22;2607;50.934;6.934;2022-08-19T04:26:16;20.10;99.90
5176;DHT22;2607;50.934;6.934;2022-08-19T04:28:42;20.10;99.90
5176;DHT22;2607;50.934;6.934;2022-08-19T04:31:14;20.10;99.90
5176;DHT22;2607;50.934;6.934;2022-08-19T04:33:39;20.10;99.90
5176;DHT22;2607;50.934;6.934;2022-08-19T04:36:05;20.10;99.90
5176;DHT22;2607;50.934;6.934;2022-08-19T04:38:31;20.10;99.90
5176;DHT22;2607;50.934;6.934;2022-08-19T04:40:56;20.10;99.90
5176;DHT22;2607;50.934;6.934;2022-08-19T04:43:40;20.10;99.90
5176;DHT22;2607;50.934;6.934;2022-08-19T04:46:08;20.10;99.90
5176;DHT22;2607;50.934;6.934;2022-08-19T04:48:35;20.10;99.90
5176;DHT22;2607;50.934;6.934;2022-08-19T04:51:01;20.10;99.90
5176;DHT22;2607;50.934;6.934;2022-08-19T04:53:33;20.10;99.90
5176;DHT22;2607;50.934;6.934;2022-08-19T04:56:05;20.10;99.90
5176;DHT22;2607;50.934;6.934;2022-08-19T04:58:31;20.10;99.90
5176;DHT22;2607;50.934;6.934;2022-08-19T05:00:57;20.20;99.90
5176;DHT22;2607;50.934;6.934;2022-08-19T05:03:25;20.20;99.90
5176;DHT22;2607;50.934;6.934;2022-08-19T05:05:51;20.20;99.90
5176;DHT22;2607;50.934;6.934;2022-08-19T05:08:19;20.20;99.90
5176;DHT22;2607;50.934;6.934;2022-08-19T05:10:50;20.20;99.90
5176;DHT22;2607;50.934;6.934;2022-08-19T05:13:18;20.20;99.90
5176;DHT22;2607;50.934;6.934;2022-08-19T05:15:55;20.20;99.90
5176;DHT22;2607;50.934;6.934;2022-08-19T05:18:20;20.20;99.90
5176;DHT22;2607;50.934;6.934;2022-08-19T05:21:07;20.20;99.90
5176;DHT22;2607;50.934;6.934;2022-08-19T05:23:52;20.20;99.90
5176;DHT22;2607;50.934;6.934;2022-08-19T05:26:17;20.20;99.90
5176;DHT22;2607;50.934;6.934;2022-08-19T05:28:43;20.20;99.90
5176;DHT22;2607;50.934;6.934;2022-08-19T05:31:08;20.20;99.90
5176;DHT22;2607;50.934;6.934;2022-08-19T05:33:34;20.20;99.90
5176;DHT22;2607;50.934;6.934;2022-08-19T05:36:02;20.20;99.90
5176;DHT22;2607;50.934;6.934;2022-08-19T05:38:28;20.20;99.90
5176;DHT22;2607;50.934;6.934;2022-08-19T05:40:53;20.20;99.90
5176;DHT22;2607;50.934;6.934;2022-08-19T05:43:19;20.20;99.90
5176;DHT22;2607;50.934;6.934;2022-08-19T05:45:45;20.20;99.90
5176;DHT22;2607;50.934;6.934;2022-08-19T05:48:11;20.20;99.90
5176;DHT22;2607;50.934;6.934;2022-08-19T05:50:39;20.20;99.90
5176;DHT22;2607;50.934;6.934;2022-08-19T05:53:05;20.20;99.90
5176;DHT22;2607;50.934;6.934;2022-08-19T05:55:31;20.20;99.90
5176;DHT22;2607;50.934;6.934;2022-08-19T05:57:57;20.30;99.90
5176;DHT22;2607;50.934;6.934;2022-08-19T06:00:22;20.20;99.90
5176;DHT22;2607;50.934;6.934;2022-08-19T06:02:48;20.30;99.90
5176;DHT22;2607;50.934;6.934;2022-08-19T06:05:14;20.30;99.90
5176;DHT22;2607;50.934;6.934;2022-08-19T06:07:39;20.30;99.90
5176;DHT22;2607;50.934;6.934;2022-08-19T06:10:07;20.30;99.90
5176;DHT22;2607;50.934;6.934;2022-08-19T06:12:33;20.30;99.90
5176;DHT22;2607;50.934;6.934;2022-08-19T06:15:02;20.30;99.90
5176;DHT22;2607;50.934;6.934;2022-08-19T06:17:29;20.30;99.90
5176;DHT22;2607;50.934;6.934;2022-08-19T06:19:55;20.30;99.90
5176;DHT22;2607;50.934;6.934;2022-08-19T06:22:21;20.40;99.90
5176;DHT22;2607;50.934;6.934;2022-08-19T06:24:46;20.40;99.90
5176;DHT22;2607;50.934;6.934;2022-08-19T06:27:12;20.30;99.90
5176;DHT22;2607;50.934;6.934;2022-08-19T06:29:38;20.40;99.90
5176;DHT22;2607;50.934;6.934;2022-08-19T06:32:04;20.40;99.90
5176;DHT22;2607;50.934;6.934;2022-08-19T06:34:32;20.40;99.90
5176;DHT22;2607;50.934;6.934;2022-08-19T06:36:59;20.50;99.90
5176;DHT22;2607;50.934;6.934;2022-08-19T06:39:28;20.50;99.90
5176;DHT22;2607;50.934;6.934;2022-08-19T06:41:57;20.50;99.90
5176;DHT22;2607;50.934;6.934;2022-08-19T06:44:24;20.50;99.90
5176;DHT22;2607;50.934;6.934;2022-08-19T06:46:51;20.50;99.90
5176;DHT22;2607;50.934;6.934;2022-08-19T06:49:17;20.50;99.90
5176;DHT22;2607;50.934;6.934;2022-08-19T06:51:44;20.60;99.90
5176;DHT22;2607;50.934;6.934;2022-08-19T06:54:13;20.60;99.90
5176;DHT22;2607;50.934;6.934;2022-08-19T06:56:38;20.70;99.90
5176;DHT22;2607;50.934;6.934;2022-08-19T06:59:08;20.70;99.90
5176;DHT22;2607;50.934;6.934;2022-08-19T07:01:38;20.70;99.90
5176;DHT22;2607;50.934;6.934;2022-08-19T07:04:06;20.70;99.90
5176;DHT22;2607;50.934;6.934;2022-08-19T07:06:32;20.80;99.90
5176;DHT22;2607;50.934;6.934;2022-08-19T07:08:58;20.80;99.90
5176;DHT22;2607;50.934;6.934;2022-08-19T07:11:23;20.80;99.90
5176;DHT22;2607;50.934;6.934;2022-08-19T07:13:49;20.80;99.90
5176;DHT22;2607;50.934;6.934;2022-08-19T07:16:17;20.80;99.90
5176;DHT22;2607;50.934;6.934;2022-08-19T07:18:48;20.90;99.90
5176;DHT22;2607;50.934;6.934;2022-08-19T07:21:20;20.90;99.90
5176;DHT22;2607;50.934;6.934;2022-08-19T07:23:47;21.00;99.90
5176;DHT22;2607;50.934;6.934;2022-08-19T07:27:00;21.00;99.90
5176;DHT22;2607;50.934;6.934;2022-08-19T07:29:00;21.10;99.90
5176;DHT22;2607;50.934;6.934;2022-08-19T07:31:27;21.10;99.90
5176;DHT22;2607;50.934;6.934;2022-08-19T07:33:55;21.10;99.90
5176;DHT22;2607;50.934;6.934;2022-08-19T07:36:23;21.10;99.90
5176;DHT22;2607;50.934;6.934;2022-08-19T07:38:50;21.10;99.90
5176;DHT22;2607;50.934;6.934;2022-08-19T07:41:24;21.20;99.90
5176;DHT22;2607;50.934;6.934;2022-08-19T07:43:51;21.20;99.90
5176;DHT22;2607;50.934;6.934;2022-08-19T07:46:18;21.10;99.90
5176;DHT22;2607;50.934;6.934;2022-08-19T07:48:46;21.10;99.90
5176;DHT22;2607;50.934;6.934;2022-08-19T07:51:15;21.20;99.90
5176;DHT22;2607;50.934;6.934;2022-08-19T07:53:41;21.20;99.90
5176;DHT22;2607;50.934;6.934;2022-08-19T07:56:08;21.20;99.90
5176;DHT22;2607;50.934;6.934;2022-08-19T07:58:36;21.20;99.90
5176;DHT22;2607;50.934;6.934;2022-08-19T08:01:05;21.20;99.90
5176;DHT22;2607;50.934;6.934;2022-08-19T08:03:31;21.20;99.90
5176;DHT22;2607;50.934;6.934;2022-08-19T08:06:15;21.20;99.90
5176;DHT22;2607;50.934;6.934;2022-08-19T08:09:00;21.30;99.90
5176;DHT22;2607;50.934;6.934;2022-08-19T08:11:53;21.30;99.90
5176;DHT22;2607;50.934;6.934;2022-08-19T08:14:23;21.30;99.90
5176;DHT22;2607;50.934;6.934;2022-08-19T08:16:50;21.40;99.90
5176;DHT22;2607;50.934;6.934;2022-08-19T08:19:21;21.40;99.90
5176;DHT22;2607;50.934;6.934;2022-08-19T08:21:48;21.50;99.90
5176;DHT22;2607;50.934;6.934;2022-08-19T08:24:15;21.50;99.90
5176;DHT22;2607;50.934;6.934;2022-08-19T08:26:41;21.50;99.90
5176;DHT22;2607;50.934;6.934;2022-08-19T08:29:12;21.50;99.90
5176;DHT22;2607;50.934;6.934;2022-08-19T08:31:39;21.60;99.90
5176;DHT22;2607;50.934;6.934;2022-08-19T08:34:05;21.60;99.90
5176;DHT22;2607;50.934;6.934;2022-08-19T08:36:31;21.70;99.90
5176;DHT22;2607;50.934;6.934;2022-08-19T08:38:59;21.70;99.90
5176;DHT22;2607;50.934;6.934;2022-08-19T08:43:54;21.90;99.90
5176;DHT22;2607;50.934;6.934;2022-08-19T08:47:03;21.90;99.90
5176;DHT22;2607;50.934;6.934;2022-08-19T08:49:49;22.00;99.90
5176;DHT22;2607;50.934;6.934;2022-08-19T08:54:51;22.20;99.90
5176;DHT22;2607;50.934;6.934;2022-08-19T08:57:39;22.30;99.90
5176;DHT22;2607;50.934;6.934;2022-08-19T09:00:14;22.40;99.90
5176;DHT22;2607;50.934;6.934;2022-08-19T09:02:40;22.50;99.90
5176;DHT22;2607;50.934;6.934;2022-08-19T09:05:06;22.60;99.90
5176;DHT22;2607;50.934;6.934;2022-08-19T09:08:00;22.60;99.90
5176;DHT22;2607;50.934;6.934;2022-08-19T09:15:56;22.90;99.90
5176;DHT22;2607;50.934;6.934;2022-08-19T09:18:23;23.00;99.90
5176;DHT22;2607;50.934;6.934;2022-08-19T09:20:49;23.10;99.90
5176;DHT22;2607;50.934;6.934;2022-08-19T09:23:15;23.20;99.90
5176;DHT22;2607;50.934;6.934;2022-08-19T09:25:41;23.20;99.90
5176;DHT22;2607;50.934;6.934;2022-08-19T09:28:07;23.20;99.90
5176;DHT22;2607;50.934;6.934;2022-08-19T09:30:38;23.20;99.90
5176;DHT22;2607;50.934;6.934;2022-08-19T09:33:05;23.30;99.90
5176;DHT22;2607;50.934;6.934;2022-08-19T09:35:32;23.40;99.70
5176;DHT22;2607;50.934;6.934;2022-08-19T09:37:58;23.40;99.60
5176;DHT22;2607;50.934;6.934;2022-08-19T09:40:25;23.40;99.80
5176;DHT22;2607;50.934;6.934;2022-08-19T09:42:50;23.50;99.70
5176;DHT22;2607;50.934;6.934;2022-08-19T09:45:19;23.60;99.90
5176;DHT22;2607;50.934;6.934;2022-08-19T09:47:47;23.60;99.50
5176;DHT22;2607;50.934;6.934;2022-08-19T09:50:14;23.60;99.60
5176;DHT22;2607;50.934;6.934;2022-08-19T09:52:40;23.70;99.20
5176;DHT22;2607;50.934;6.934;2022-08-19T09:55:08;23.80;98.10
5176;DHT22;2607;50.934;6.934;2022-08-19T09:57:34;23.70;98.00
5176;DHT22;2607;50.934;6.934;2022-08-19T10:00:00;23.70;98.20
5176;DHT22;2607;50.934;6.934;2022-08-19T10:02:26;23.70;98.00
5176;DHT22;2607;50.934;6.934;2022-08-19T10:04:52;23.70;97.80
5176;DHT22;2607;50.934;6.934;2022-08-19T10:07:37;23.70;97.60
5176;DHT22;2607;50.934;6.934;2022-08-19T10:10:07;23.70;97.70
5176;DHT22;2607;50.934;6.934;2022-08-19T10:12:33;23.80;97.80
5176;DHT22;2607;50.934;6.934;2022-08-19T10:15:00;23.80;97.90
5176;DHT22;2607;50.934;6.934;2022-08-19T10:17:26;24.00;96.80
5176;DHT22;2607;50.934;6.934;2022-08-19T10:19:52;24.10;96.10
5176;DHT22;2607;50.934;6.934;2022-08-19T10:22:18;24.10;96.20
5176;DHT22;2607;50.934;6.934;2022-08-19T10:24:43;24.10;96.40
5176;DHT22;2607;50.934;6.934;2022-08-19T10:27:09;24.20;96.70
5176;DHT22;2607;50.934;6.934;2022-08-19T10:29:35;24.30;96.60
5176;DHT22;2607;50.934;6.934;2022-08-19T10:32:02;24.40;96.30
5176;DHT22;2607;50.934;6.934;2022-08-19T10:34:30;24.60;96.20
5176;DHT22;2607;50.934;6.934;2022-08-19T10:36:56;24.60;95.90
5176;DHT22;2607;50.934;6.934;2022-08-19T10:39:22;24.80;95.60
5176;DHT22;2607;50.934;6.934;2022-08-19T10:41:48;24.90;95.50
5176;DHT22;2607;50.934;6.934;2022-08-19T10:44:14;25.00;95.10
5176;DHT22;2607;50.934;6.934;2022-08-19T10:46:42;25.30;94.60
5176;DHT22;2607;50.934;6.934;2022-08-19T10:49:11;25.30;94.70
5176;DHT22;2607;50.934;6.934;2022-08-19T10:51:38;25.40;94.50
5176;DHT22;2607;50.934;6.934;2022-08-19T10:54:22;25.50;94.20
5176;DHT22;2607;50.934;6.934;2022-08-19T10:56:48;25.60;94.10
5176;DHT22;2607;50.934;6.934;2022-08-19T10:59:22;25.60;93.90
5176;DHT22;2607;50.934;6.934;2022-08-19T11:01:48;25.60;93.90
5176;DHT22;2607;50.934;6.934;2022-08-19T11:04:14;25.60;94.10
5176;DHT22;2607;50.934;6.934;2022-08-19T11:06:44;25.50;94.10
5176;DHT22;2607;50.934;6.934;2022-08-19T11:09:13;25.40;94.30
5176;DHT22;2607;50.934;6.934;2022-08-19T11:11:40;25.30;94.20
5176;DHT22;2607;50.934;6.934;2022-08-19T11:14:11;25.20;94.50
5176;DHT22;2607;50.934;6.934;2022-08-19T11:16:37;25.20;94.40
5176;DHT22;2607;50.934;6.934;2022-08-19T11:19:05;25.30;94.20
5176;DHT22;2607;50.934;6.934;2022-08-19T11:21:35;25.40;93.70
5176;DHT22;2607;50.934;6.934;2022-08-19T11:24:06;25.50;93.80
5176;DHT22;2607;50.934;6.934;2022-08-19T11:26:32;25.50;93.60
5176;DHT22;2607;50.934;6.934;2022-08-19T11:28:59;25.60;93.10
5176;DHT22;2607;50.934;6.934;2022-08-19T11:31:30;25.60;92.70
5176;DHT22;2607;50.934;6.934;2022-08-19T11:34:00;25.70;92.60
5176;DHT22;2607;50.934;6.934;2022-08-19T11:36:29;25.70;92.70
5176;DHT22;2607;50.934;6.934;2022-08-19T11:38:55;25.60;92.70
5176;DHT22;2607;50.934;6.934;2022-08-19T11:41:22;25.70;92.40
5176;DHT22;2607;50.934;6.934;2022-08-19T11:43:49;25.70;91.70
5176;DHT22;2607;50.934;6.934;2022-08-19T11:46:15;25.80;91.70
5176;DHT22;2607;50.934;6.934;2022-08-19T11:48:41;25.90;91.60
5176;DHT22;2607;50.934;6.934;2022-08-19T11:51:11;26.00;91.60
5176;DHT22;2607;50.934;6.934;2022-08-19T11:53:37;26.10;91.50
5176;DHT22;2607;50.934;6.934;2022-08-19T11:56:06;26.30;90.80
5176;DHT22;2607;50.934;6.934;2022-08-19T11:58:32;26.40;90.30
5176;DHT22;2607;50.934;6.934;2022-08-19T12:00:59;26.50;90.30
5176;DHT22;2607;50.934;6.934;2022-08-19T12:03:25;26.50;90.60
5176;DHT22;2607;50.934;6.934;2022-08-19T12:05:51;26.60;90.40
5176;DHT22;2607;50.934;6.934;2022-08-19T12:08:17;26.60;90.40
5176;DHT22;2607;50.934;6.934;2022-08-19T12:10:43;26.60;90.60
5176;DHT22;2607;50.934;6.934;2022-08-19T12:13:12;26.50;90.40
5176;DHT22;2607;50.934;6.934;2022-08-19T12:15:40;26.60;90.10
5176;DHT22;2607;50.934;6.934;2022-08-19T12:18:08;26.80;89.60
5176;DHT22;2607;50.934;6.934;2022-08-19T12:20:36;26.90;89.00
5176;DHT22;2607;50.934;6.934;2022-08-19T12:23:03;26.90;88.60
5176;DHT22;2607;50.934;6.934;2022-08-19T12:25:28;27.00;87.70
5176;DHT22;2607;50.934;6.934;2022-08-19T12:27:54;27.00;87.00
5176;DHT22;2607;50.934;6.934;2022-08-19T12:30:20;27.00;86.90
5176;DHT22;2607;50.934;6.934;2022-08-19T12:32:45;26.90;86.30
5176;DHT22;2607;50.934;6.934;2022-08-19T12:35:11;27.00;86.30
5176;DHT22;2607;50.934;6.934;2022-08-19T12:37:38;27.00;86.40
5176;DHT22;2607;50.934;6.934;2022-08-19T12:40:04;27.10;86.20
5176;DHT22;2607;50.934;6.934;2022-08-19T12:42:30;27.10;85.90
5176;DHT22;2607;50.934;6.934;2022-08-19T12:44:56;27.20;85.90
5176;DHT22;2607;50.934;6.934;2022-08-19T12:47:21;27.30;86.30
5176;DHT22;2607;50.934;6.934;2022-08-19T12:49:48;27.40;86.70
5176;DHT22;2607;50.934;6.934;2022-08-19T12:52:14;27.50;86.00
5176;DHT22;2607;50.934;6.934;2022-08-19T12:54:42;27.60;85.50
5176;DHT22;2607;50.934;6.934;2022-08-19T12:57:09;27.70;83.10
5176;DHT22;2607;50.934;6.934;2022-08-19T12:59:36;27.60;82.40
5176;DHT22;2607;50.934;6.934;2022-08-19T13:02:04;27.60;82.70
5176;DHT22;2607;50.934;6.934;2022-08-19T13:04:32;27.50;82.50
5176;DHT22;2607;50.934;6.934;2022-08-19T13:06:58;27.40;83.10
5176;DHT22;2607;50.934;6.934;2022-08-19T13:09:24;27.30;83.70
5176;DHT22;2607;50.934;6.934;2022-08-19T13:11:49;27.20;84.40
5176;DHT22;2607;50.934;6.934;2022-08-19T13:14:15;27.10;84.10
5176;DHT22;2607;50.934;6.934;2022-08-19T13:16:40;27.10;83.50
5176;DHT22;2607;50.934;6.934;2022-08-19T13:19:06;27.10;83.00
5176;DHT22;2607;50.934;6.934;2022-08-19T13:21:32;27.10;82.40
5176;DHT22;2607;50.934;6.934;2022-08-19T13:23:58;27.10;82.20
5176;DHT22;2607;50.934;6.934;2022-08-19T13:26:24;27.00;80.90
5176;DHT22;2607;50.934;6.934;2022-08-19T13:28:50;27.00;81.20
5176;DHT22;2607;50.934;6.934;2022-08-19T13:31:35;27.00;80.50
5176;DHT22;2607;50.934;6.934;2022-08-19T13:34:32;27.10;79.70
5176;DHT22;2607;50.934;6.934;2022-08-19T13:36:59;27.00;80.10
5176;DHT22;2607;50.934;6.934;2022-08-19T13:39:25;27.10;79.80
5176;DHT22;2607;50.934;6.934;2022-08-19T13:41:51;27.00;79.70
5176;DHT22;2607;50.934;6.934;2022-08-19T13:44:17;27.00;79.50
5176;DHT22;2607;50.934;6.934;2022-08-19T13:46:47;27.00;79.70
5176;DHT22;2607;50.934;6.934;2022-08-19T13:49:14;27.00;79.00
5176;DHT22;2607;50.934;6.934;2022-08-19T13:51:41;27.10;79.10
5176;DHT22;2607;50.934;6.934;2022-08-19T13:54:09;27.10;78.80
5176;DHT22;2607;50.934;6.934;2022-08-19T13:56:43;27.10;79.00
5176;DHT22;2607;50.934;6.934;2022-08-19T13:59:09;27.10;78.80
5176;DHT22;2607;50.934;6.934;2022-08-19T14:01:35;27.10;78.70
5176;DHT22;2607;50.934;6.934;2022-08-19T14:04:02;27.20;77.40
5176;DHT22;2607;50.934;6.934;2022-08-19T14:06:27;27.20;77.50
5176;DHT22;2607;50.934;6.934;2022-08-19T14:08:53;27.20;77.70
5176;DHT22;2607;50.934;6.934;2022-08-19T14:11:18;27.20;77.40
5176;DHT22;2607;50.934;6.934;2022-08-19T14:13:44;27.30;75.50
5176;DHT22;2607;50.934;6.934;2022-08-19T14:16:12;27.30;74.90
5176;DHT22;2607;50.934;6.934;2022-08-19T14:18:38;27.30;76.60
5176;DHT22;2607;50.934;6.934;2022-08-19T14:21:05;27.30;77.60
5176;DHT22;2607;50.934;6.934;2022-08-19T14:23:32;27.30;77.80
5176;DHT22;2607;50.934;6.934;2022-08-19T14:26:10;27.20;77.60
5176;DHT22;2607;50.934;6.934;2022-08-19T14:28:37;27.30;77.50
5176;DHT22;2607;50.934;6.934;2022-08-19T14:31:02;27.30;77.60
5176;DHT22;2607;50.934;6.934;2022-08-19T14:33:28;27.20;78.00
5176;DHT22;2607;50.934;6.934;2022-08-19T14:35:53;27.20;78.30
5176;DHT22;2607;50.934;6.934;2022-08-19T14:38:19;27.20;78.30
5176;DHT22;2607;50.934;6.934;2022-08-19T14:40:45;27.20;78.00
5176;DHT22;2607;50.934;6.934;2022-08-19T14:43:11;27.30;77.70
5176;DHT22;2607;50.934;6.934;2022-08-19T14:45:38;27.20;77.60
5176;DHT22;2607;50.934;6.934;2022-08-19T14:48:05;27.20;77.90
5176;DHT22;2607;50.934;6.934;2022-08-19T14:50:32;27.10;78.30
5176;DHT22;2607;50.934;6.934;2022-08-19T14:53:06;27.10;79.00
5176;DHT22;2607;50.934;6.934;2022-08-19T14:55:33;27.10;78.50
5176;DHT22;2607;50.934;6.934;2022-08-19T14:57:59;27.10;78.20
5176;DHT22;2607;50.934;6.934;2022-08-19T15:00:25;27.10;78.30
5176;DHT22;2607;50.934;6.934;2022-08-19T15:02:51;27.10;78.20
5176;DHT22;2607;50.934;6.934;2022-08-19T15:05:18;27.20;77.80
5176;DHT22;2607;50.934;6.934;2022-08-19T15:07:44;27.20;76.90
5176;DHT22;2607;50.934;6.934;2022-08-19T15:10:12;27.20;76.40
5176;DHT22;2607;50.934;6.934;2022-08-19T15:12:38;27.20;75.80
5176;DHT22;2607;50.934;6.934;2022-08-19T15:15:06;27.30;74.50
5176;DHT22;2607;50.934;6.934;2022-08-19T15:17:32;27.30;74.30
5176;DHT22;2607;50.934;6.934;2022-08-19T15:19:58;27.20;74.20
5176;DHT22;2607;50.934;6.934;2022-08-19T15:22:24;27.20;74.10
5176;DHT22;2607;50.934;6.934;2022-08-19T15:24:49;27.10;74.50
5176;DHT22;2607;50.934;6.934;2022-08-19T15:27:15;27.00;75.00
5176;DHT22;2607;50.934;6.934;2022-08-19T15:29:41;27.00;75.30
5176;DHT22;2607;50.934;6.934;2022-08-19T15:32:07;27.00;74.90
5176;DHT22;2607;50.934;6.934;2022-08-19T15:34:34;27.00;74.40
5176;DHT22;2607;50.934;6.934;2022-08-19T15:37:00;26.90;74.50
5176;DHT22;2607;50.934;6.934;2022-08-19T15:39:27;26.90;74.40
5176;DHT22;2607;50.934;6.934;2022-08-19T15:41:52;26.90;74.10
5176;DHT22;2607;50.934;6.934;2022-08-19T15:44:19;27.00;74.40
5176;DHT22;2607;50.934;6.934;2022-08-19T15:46:47;27.10;75.20
5176;DHT22;2607;50.934;6.934;2022-08-19T15:49:15;27.00;75.40
5176;DHT22;2607;50.934;6.934;2022-08-19T15:51:43;27.10;75.80
5176;DHT22;2607;50.934;6.934;2022-08-19T15:54:14;27.10;76.20
5176;DHT22;2607;50.934;6.934;2022-08-19T15:56:40;27.10;77.00
5176;DHT22;2607;50.934;6.934;2022-08-19T15:59:25;27.10;77.00
5176;DHT22;2607;50.934;6.934;2022-08-19T16:02:10;27.10;77.30
5176;DHT22;2607;50.934;6.934;2022-08-19T16:04:54;27.10;77.70
5176;DHT22;2607;50.934;6.934;2022-08-19T16:07:38;27.10;78.30
5176;DHT22;2607;50.934;6.934;2022-08-19T16:10:05;27.00;78.80
5176;DHT22;2607;50.934;6.934;2022-08-19T16:12:31;27.00;79.40
5176;DHT22;2607;50.934;6.934;2022-08-19T16:14:57;27.20;79.70
5176;DHT22;2607;50.934;6.934;2022-08-19T16:17:23;27.10;79.70